Alginet, Spain
Current Conditions -  °F | °C
As of 2:30 PM on Saturday 25 Oct 2014 (Local Time) from LEVC Reporting Station
Clear Clear  
Wind Chill: 84°   Ceiling: Unl
Heat Index: 84°   Visibility: 6mi
Dew Point: 41°   Wind: 5mph
Humidity: 22%   Direction: 140°SE
Pressure: 30.09"   Gusts: NA
Location:  39.27°N, 0.47°W
Report Text: LEVC 251230Z 14004KT 100V200 CAVOK 29/05 Q1019 NOSIG
Loading
Personal Weather Stations






























Interactive Weather Map New forecast layout! Learn more

10-Day Weather Forecast

Advertisements
Track Severe Weather on mobile